Anzahl Datensätze: 287
min. Temperatur: 5.9 °C
max. Temperatur: 23.0 °C
max. Windgeschwindigkeit: 23.0 km/h
Niederschlagsumme: 0.0 mm
| Datum |
Zeit |
Temp °C |
Feuchte % |
Taupunkt °C |
Luftdruck hPa |
Wind km/h |
Windrichtung |
Strahlung w/m² |
Niederschlag mm |
|---|---|---|---|---|---|---|---|---|---|
| 17.04.2026 | 00:00 | 10.2 | 89 | 8.5 | 1021.1 | 0.0 | NW | 0 | 0.0 |
| 17.04.2026 | 00:05 | 10.1 | 89 | 8.4 | 1021.0 | 0.0 | NW | 0 | 0.0 |
| 17.04.2026 | 00:11 | 9.8 | 89 | 8.1 | 1021.0 | 0.0 | NW | 0 | 0.0 |
| 17.04.2026 | 00:16 | 9.8 | 90 | 8.2 | 1021.1 | 0.0 | NW | 0 | 0.0 |
| 17.04.2026 | 00:21 | 9.7 | 90 | 8.1 | 1021.1 | 0.0 | NW | 0 | 0.0 |
| 17.04.2026 | 00:26 | 9.7 | 90 | 8.1 | 1021.1 | 0.0 | NW | 0 | 0.0 |
| 17.04.2026 | 00:31 | 9.7 | 90 | 8.1 | 1021.1 | 0.0 | NW | 0 | 0.0 |
| 17.04.2026 | 00:36 | 9.7 | 90 | 8.1 | 1021.1 | 0.0 | NW | 0 | 0.0 |
| 17.04.2026 | 00:41 | 9.8 | 90 | 8.2 | 1021.1 | 0.0 | NW | 0 | 0.0 |
| 17.04.2026 | 00:46 | 9.7 | 90 | 8.1 | 1021.0 | 0.0 | NW | 0 | 0.0 |
| 17.04.2026 | 00:51 | 9.7 | 90 | 8.1 | 1021.1 | 0.0 | NW | 0 | 0.0 |
| 17.04.2026 | 00:56 | 9.6 | 90 | 8.0 | 1021.1 | 0.0 | NW | 0 | 0.0 |
| 17.04.2026 | 01:01 | 9.4 | 90 | 7.8 | 1021.1 | 0.0 | NW | 0 | 0.0 |
| 17.04.2026 | 01:06 | 9.3 | 90 | 7.7 | 1021.1 | 0.0 | NW | 0 | 0.0 |
| 17.04.2026 | 01:11 | 9.3 | 90 | 7.7 | 1021.1 | 0.0 | NW | 0 | 0.0 |
| 17.04.2026 | 01:16 | 9.1 | 90 | 7.5 | 1021.1 | 0.0 | NW | 0 | 0.0 |
| 17.04.2026 | 01:21 | 9.2 | 91 | 7.8 | 1021.1 | 0.0 | NW | 0 | 0.0 |
| 17.04.2026 | 01:26 | 9.2 | 90 | 7.6 | 1021.1 | 0.0 | NW | 0 | 0.0 |
| 17.04.2026 | 01:31 | 8.9 | 90 | 7.3 | 1021.2 | 0.0 | NW | 0 | 0.0 |
| 17.04.2026 | 01:36 | 8.8 | 91 | 7.4 | 1021.2 | 0.0 | NW | 0 | 0.0 |
| 17.04.2026 | 01:41 | 8.8 | 91 | 7.4 | 1021.1 | 0.0 | NW | 0 | 0.0 |
| 17.04.2026 | 01:46 | 8.8 | 91 | 7.4 | 1021.2 | 0.0 | NW | 0 | 0.0 |
| 17.04.2026 | 01:51 | 8.7 | 91 | 7.3 | 1021.1 | 0.0 | NW | 0 | 0.0 |
| 17.04.2026 | 01:56 | 8.7 | 92 | 7.5 | 1021.1 | 0.0 | NW | 0 | 0.0 |
| 17.04.2026 | 02:01 | 8.6 | 91 | 7.2 | 1021.1 | 0.0 | NW | 0 | 0.0 |
| 17.04.2026 | 02:06 | 8.4 | 91 | 7.0 | 1021.1 | 0.0 | NW | 0 | 0.0 |
| 17.04.2026 | 02:11 | 8.4 | 91 | 7.0 | 1021.1 | 0.0 | NW | 0 | 0.0 |
| 17.04.2026 | 02:16 | 8.3 | 91 | 6.9 | 1021.1 | 0.0 | NW | 0 | 0.0 |
| 17.04.2026 | 02:21 | 8.3 | 92 | 7.1 | 1021.0 | 0.0 | NW | 0 | 0.0 |
| 17.04.2026 | 02:26 | 8.3 | 91 | 6.9 | 1021.0 | 4.3 | NW | 0 | 0.0 |
| 17.04.2026 | 02:31 | 8.4 | 92 | 7.2 | 1021.0 | 0.0 | NW | 0 | 0.0 |
| 17.04.2026 | 02:36 | 8.4 | 92 | 7.2 | 1021.0 | 0.0 | NW | 0 | 0.0 |
| 17.04.2026 | 02:41 | 8.4 | 91 | 7.0 | 1020.9 | 0.0 | NW | 0 | 0.0 |
| 17.04.2026 | 02:46 | 8.3 | 91 | 6.9 | 1020.9 | 0.0 | NW | 0 | 0.0 |
| 17.04.2026 | 02:51 | 8.2 | 91 | 6.8 | 1020.9 | 0.0 | NW | 0 | 0.0 |
| 17.04.2026 | 02:56 | 8.1 | 91 | 6.7 | 1020.9 | 0.0 | NW | 0 | 0.0 |
| 17.04.2026 | 03:02 | 8.0 | 91 | 6.6 | 1020.9 | 0.0 | NW | 0 | 0.0 |
| 17.04.2026 | 03:07 | 7.8 | 91 | 6.4 | 1020.9 | 0.0 | NW | 0 | 0.0 |
| 17.04.2026 | 03:12 | 7.8 | 91 | 6.4 | 1020.9 | 0.0 | NW | 0 | 0.0 |
| 17.04.2026 | 03:17 | 7.7 | 91 | 6.3 | 1020.9 | 0.0 | NW | 0 | 0.0 |
| 17.04.2026 | 03:22 | 7.6 | 91 | 6.2 | 1020.9 | 0.0 | NW | 0 | 0.0 |
| 17.04.2026 | 03:27 | 7.6 | 92 | 6.4 | 1020.9 | 0.0 | NW | 0 | 0.0 |
| 17.04.2026 | 03:32 | 7.6 | 92 | 6.4 | 1020.9 | 0.0 | NW | 0 | 0.0 |
| 17.04.2026 | 03:37 | 7.7 | 92 | 6.5 | 1020.9 | 0.0 | NW | 0 | 0.0 |
| 17.04.2026 | 03:42 | 7.5 | 92 | 6.3 | 1021.0 | 0.0 | NW | 0 | 0.0 |
| 17.04.2026 | 03:47 | 7.6 | 92 | 6.4 | 1020.9 | 0.0 | NW | 0 | 0.0 |
| 17.04.2026 | 03:52 | 7.3 | 91 | 5.9 | 1020.9 | 0.0 | NW | 0 | 0.0 |
| 17.04.2026 | 03:57 | 7.2 | 92 | 6.0 | 1021.0 | 0.0 | NW | 0 | 0.0 |
| 17.04.2026 | 04:02 | 7.1 | 92 | 5.9 | 1020.9 | 0.0 | NW | 0 | 0.0 |
| 17.04.2026 | 04:07 | 7.1 | 92 | 5.9 | 1020.9 | 0.0 | NW | 0 | 0.0 |
| 17.04.2026 | 04:12 | 7.1 | 92 | 5.9 | 1020.9 | 0.0 | NW | 0 | 0.0 |
| 17.04.2026 | 04:17 | 7.1 | 92 | 5.9 | 1020.9 | 0.0 | NW | 0 | 0.0 |
| 17.04.2026 | 04:22 | 7.1 | 92 | 5.9 | 1020.9 | 0.0 | NW | 0 | 0.0 |
| 17.04.2026 | 04:27 | 7.1 | 92 | 5.9 | 1020.9 | 0.0 | NW | 0 | 0.0 |
| 17.04.2026 | 04:32 | 7.0 | 92 | 5.8 | 1020.8 | 0.0 | NW | 0 | 0.0 |
| 17.04.2026 | 04:37 | 6.9 | 92 | 5.7 | 1020.8 | 0.0 | NW | 0 | 0.0 |
| 17.04.2026 | 04:42 | 6.8 | 92 | 5.6 | 1020.8 | 0.0 | NW | 0 | 0.0 |
| 17.04.2026 | 04:47 | 6.7 | 92 | 5.5 | 1020.8 | 0.0 | NW | 0 | 0.0 |
| 17.04.2026 | 04:52 | 6.7 | 92 | 5.5 | 1020.8 | 0.0 | NW | 0 | 0.0 |
| 17.04.2026 | 04:57 | 6.7 | 92 | 5.5 | 1020.9 | 0.0 | NW | 0 | 0.0 |
| 17.04.2026 | 05:02 | 6.6 | 92 | 5.4 | 1020.9 | 0.0 | NW | 0 | 0.0 |
| 17.04.2026 | 05:07 | 6.6 | 92 | 5.4 | 1020.9 | 0.0 | NW | 0 | 0.0 |
| 17.04.2026 | 05:12 | 6.4 | 92 | 5.2 | 1020.9 | 0.0 | NW | 0 | 0.0 |
| 17.04.2026 | 05:17 | 6.5 | 92 | 5.3 | 1020.9 | 0.0 | NW | 0 | 0.0 |
| 17.04.2026 | 05:22 | 6.5 | 92 | 5.3 | 1020.9 | 0.0 | NW | 0 | 0.0 |
| 17.04.2026 | 05:27 | 6.4 | 92 | 5.2 | 1020.9 | 0.0 | NW | 0 | 0.0 |
| 17.04.2026 | 05:32 | 6.4 | 92 | 5.2 | 1020.9 | 0.0 | NW | 0 | 0.0 |
| 17.04.2026 | 05:38 | 6.4 | 92 | 5.2 | 1020.9 | 0.0 | NW | 0 | 0.0 |
| 17.04.2026 | 05:43 | 6.4 | 92 | 5.2 | 1020.9 | 0.0 | NW | 0 | 0.0 |
| 17.04.2026 | 05:48 | 6.4 | 92 | 5.2 | 1020.9 | 0.0 | NW | 0 | 0.0 |
| 17.04.2026 | 05:53 | 6.4 | 93 | 5.4 | 1020.9 | 0.0 | NW | 0 | 0.0 |
| 17.04.2026 | 05:58 | 6.3 | 93 | 5.3 | 1020.9 | 0.0 | NW | 0 | 0.0 |
| 17.04.2026 | 06:03 | 6.3 | 93 | 5.3 | 1020.9 | 0.0 | NW | 0 | 0.0 |
| 17.04.2026 | 06:08 | 6.2 | 93 | 5.2 | 1020.9 | 0.0 | NW | 0 | 0.0 |
| 17.04.2026 | 06:13 | 6.2 | 93 | 5.2 | 1020.8 | 0.0 | NW | 0 | 0.0 |
| 17.04.2026 | 06:18 | 6.1 | 92 | 4.9 | 1020.9 | 0.0 | NW | 0 | 0.0 |
| 17.04.2026 | 06:23 | 5.9 | 93 | 4.9 | 1020.9 | 0.0 | NW | 0 | 0.0 |
| 17.04.2026 | 06:28 | 5.9 | 93 | 4.9 | 1020.9 | 0.0 | NW | 5 | 0.0 |
| 17.04.2026 | 06:33 | 5.9 | 93 | 4.9 | 1020.9 | 0.0 | NW | 5 | 0.0 |
| 17.04.2026 | 06:38 | 5.9 | 93 | 4.9 | 1020.9 | 0.0 | NW | 7 | 0.0 |
| 17.04.2026 | 06:43 | 5.9 | 93 | 4.9 | 1020.9 | 0.0 | NW | 11 | 0.0 |
| 17.04.2026 | 06:48 | 6.0 | 93 | 5.0 | 1021.0 | 0.0 | NW | 12 | 0.0 |
| 17.04.2026 | 06:53 | 6.0 | 93 | 5.0 | 1021.0 | 0.0 | WNW | 16 | 0.0 |
| 17.04.2026 | 06:58 | 6.0 | 93 | 5.0 | 1020.9 | 0.0 | WNW | 19 | 0.0 |
| 17.04.2026 | 07:03 | 6.1 | 93 | 5.1 | 1021.1 | 0.0 | WNW | 21 | 0.0 |
| 17.04.2026 | 07:08 | 6.1 | 93 | 5.1 | 1021.0 | 0.0 | S | 23 | 0.0 |
| 17.04.2026 | 07:13 | 6.2 | 93 | 5.2 | 1021.0 | 0.0 | S | 25 | 0.0 |
| 17.04.2026 | 07:18 | 6.3 | 93 | 5.3 | 1021.1 | 0.0 | NW | 28 | 0.0 |
| 17.04.2026 | 07:23 | 6.3 | 93 | 5.3 | 1021.1 | 0.0 | NNW | 30 | 0.0 |
| 17.04.2026 | 07:28 | 6.5 | 93 | 5.4 | 1021.1 | 0.0 | NO | 33 | 0.0 |
| 17.04.2026 | 07:33 | 6.7 | 93 | 5.6 | 1021.2 | 0.0 | NW | 37 | 0.0 |
| 17.04.2026 | 07:38 | 6.8 | 92 | 5.6 | 1021.3 | 0.0 | NW | 44 | 0.0 |
| 17.04.2026 | 07:43 | 7.1 | 92 | 5.9 | 1021.2 | 0.0 | NW | 46 | 0.0 |
| 17.04.2026 | 07:48 | 7.3 | 92 | 6.1 | 1021.2 | 0.0 | NW | 53 | 0.0 |
| 17.04.2026 | 07:53 | 7.6 | 92 | 6.4 | 1021.2 | 0.0 | NW | 53 | 0.0 |
| 17.04.2026 | 07:58 | 8.1 | 92 | 6.9 | 1021.2 | 0.0 | NW | 54 | 0.0 |
| 17.04.2026 | 08:03 | 8.3 | 92 | 7.1 | 1021.2 | 0.0 | NW | 54 | 0.0 |
| 17.04.2026 | 08:08 | 8.7 | 92 | 7.5 | 1021.2 | 0.0 | NNW | 86 | 0.0 |
| 17.04.2026 | 08:13 | 9.1 | 91 | 7.7 | 1021.3 | 0.0 | NNW | 60 | 0.0 |
| 17.04.2026 | 08:19 | 9.3 | 90 | 7.7 | 1021.4 | 0.0 | NW | 56 | 0.0 |
| 17.04.2026 | 08:24 | 9.6 | 90 | 8.0 | 1021.4 | 0.0 | NNW | 54 | 0.0 |
| 17.04.2026 | 08:29 | 9.8 | 90 | 8.2 | 1021.3 | 4.3 | NNW | 58 | 0.0 |
| 17.04.2026 | 08:34 | 10.1 | 89 | 8.4 | 1021.4 | 1.8 | NNW | 69 | 0.0 |
| 17.04.2026 | 08:39 | 10.3 | 89 | 8.6 | 1021.3 | 1.8 | N | 174 | 0.0 |
| 17.04.2026 | 08:44 | 10.5 | 88 | 8.6 | 1021.4 | 0.0 | NW | 251 | 0.0 |
| 17.04.2026 | 08:49 | 10.8 | 88 | 8.9 | 1021.3 | 1.8 | NNW | 264 | 0.0 |
| 17.04.2026 | 08:54 | 11.1 | 88 | 9.2 | 1021.3 | 4.3 | O | 285 | 0.0 |
| 17.04.2026 | 08:59 | 11.3 | 87 | 9.2 | 1021.4 | 0.0 | N | 309 | 0.0 |
| 17.04.2026 | 09:04 | 11.6 | 86 | 9.3 | 1021.3 | 0.0 | O | 357 | 0.0 |
| 17.04.2026 | 09:09 | 11.8 | 85 | 9.4 | 1021.3 | 1.8 | O | 374 | 0.0 |
| 17.04.2026 | 09:14 | 12.1 | 85 | 9.7 | 1021.3 | 4.3 | NW | 388 | 0.0 |
| 17.04.2026 | 09:19 | 12.4 | 84 | 9.8 | 1021.3 | 0.0 | NW | 408 | 0.0 |
| 17.04.2026 | 09:24 | 12.8 | 83 | 10.0 | 1021.3 | 1.8 | ONO | 425 | 0.0 |
| 17.04.2026 | 09:29 | 13.0 | 82 | 10.0 | 1021.3 | 0.0 | NO | 443 | 0.0 |
| 17.04.2026 | 09:34 | 13.3 | 83 | 10.5 | 1021.2 | 0.0 | NO | 459 | 0.0 |
| 17.04.2026 | 09:39 | 13.5 | 82 | 10.5 | 1021.2 | 4.3 | O | 468 | 0.0 |
| 17.04.2026 | 09:44 | 13.8 | 81 | 10.6 | 1021.3 | 1.8 | O | 489 | 0.0 |
| 17.04.2026 | 09:49 | 13.9 | 80 | 10.5 | 1021.2 | 1.8 | O | 492 | 0.0 |
| 17.04.2026 | 09:54 | 14.0 | 80 | 10.6 | 1021.2 | 0.0 | O | 452 | 0.0 |
| 17.04.2026 | 09:59 | 14.4 | 80 | 11.0 | 1021.3 | 4.3 | O | 457 | 0.0 |
| 17.04.2026 | 10:04 | 14.7 | 80 | 11.3 | 1021.2 | 6.1 | NO | 482 | 0.0 |
| 17.04.2026 | 10:09 | 15.0 | 78 | 11.2 | 1021.3 | 1.8 | NNW | 130 | 0.0 |
| 17.04.2026 | 10:14 | 14.9 | 77 | 10.9 | 1021.2 | 0.0 | NNW | 236 | 0.0 |
| 17.04.2026 | 10:19 | 15.3 | 76 | 11.1 | 1021.2 | 1.8 | NO | 508 | 0.0 |
| 17.04.2026 | 10:24 | 15.4 | 75 | 11.0 | 1021.2 | 0.0 | NO | 506 | 0.0 |
| 17.04.2026 | 10:29 | 15.7 | 74 | 11.1 | 1021.2 | 4.3 | O | 459 | 0.0 |
| 17.04.2026 | 10:34 | 15.7 | 75 | 11.3 | 1021.1 | 0.0 | O | 552 | 0.0 |
| 17.04.2026 | 10:39 | 16.2 | 74 | 11.6 | 1021.1 | 4.3 | NO | 434 | 0.0 |
| 17.04.2026 | 10:44 | 16.7 | 73 | 11.8 | 1021.1 | 4.3 | NW | 613 | 0.0 |
| 17.04.2026 | 10:49 | 16.9 | 72 | 11.8 | 1021.1 | 8.3 | ONO | 631 | 0.0 |
| 17.04.2026 | 10:54 | 17.1 | 70 | 11.6 | 1021.2 | 4.3 | OSO | 629 | 0.0 |
| 17.04.2026 | 10:59 | 17.2 | 71 | 11.9 | 1021.2 | 0.0 | OSO | 107 | 0.0 |
| 17.04.2026 | 11:04 | 17.3 | 70 | 11.8 | 1021.1 | 1.8 | OSO | 271 | 0.0 |
| 17.04.2026 | 11:10 | 17.9 | 69 | 12.1 | 1021.1 | 4.3 | SO | 628 | 0.0 |
| 17.04.2026 | 11:15 | 17.9 | 67 | 11.7 | 1021.1 | 4.3 | SO | 606 | 0.0 |
| 17.04.2026 | 11:20 | 17.9 | 68 | 11.9 | 1021.0 | 1.8 | SO | 441 | 0.0 |
| 17.04.2026 | 11:25 | 18.2 | 69 | 12.4 | 1021.0 | 0.0 | ONO | 691 | 0.0 |
| 17.04.2026 | 11:30 | 18.4 | 67 | 12.2 | 1020.9 | 6.1 | NW | 578 | 0.0 |
| 17.04.2026 | 11:35 | 18.8 | 65 | 12.1 | 1020.9 | 1.8 | NNO | 705 | 0.0 |
| 17.04.2026 | 11:40 | 18.8 | 65 | 12.1 | 1020.9 | 1.8 | OSO | 710 | 0.0 |
| 17.04.2026 | 11:45 | 19.1 | 63 | 11.9 | 1020.8 | 1.8 | SW | 696 | 0.0 |
| 17.04.2026 | 11:50 | 19.7 | 64 | 12.7 | 1020.8 | 4.3 | WSW | 714 | 0.0 |
| 17.04.2026 | 11:55 | 19.9 | 63 | 12.6 | 1020.8 | 6.1 | ONO | 733 | 0.0 |
| 17.04.2026 | 12:00 | 20.1 | 61 | 12.3 | 1020.7 | 6.1 | OSO | 737 | 0.0 |
| 17.04.2026 | 12:05 | 20.1 | 60 | 12.1 | 1020.7 | 8.3 | OSO | 747 | 0.0 |
| 17.04.2026 | 12:10 | 20.6 | 59 | 12.3 | 1020.7 | 6.1 | ONO | 768 | 0.0 |
| 17.04.2026 | 12:15 | 20.6 | 57 | 11.8 | 1020.5 | 4.3 | SSO | 768 | 0.0 |
| 17.04.2026 | 12:20 | 20.6 | 55 | 11.2 | 1020.5 | 1.8 | O | 770 | 0.0 |
| 17.04.2026 | 12:25 | 21.1 | 54 | 11.4 | 1020.6 | 6.1 | N | 763 | 0.0 |
| 17.04.2026 | 12:30 | 21.1 | 56 | 12.0 | 1020.5 | 4.3 | SSW | 763 | 0.0 |
| 17.04.2026 | 12:35 | 21.3 | 55 | 11.9 | 1020.4 | 4.3 | S | 786 | 0.0 |
| 17.04.2026 | 12:40 | 21.1 | 55 | 11.7 | 1020.4 | 4.3 | WNW | 758 | 0.0 |
| 17.04.2026 | 12:45 | 21.4 | 54 | 11.7 | 1020.3 | 4.3 | O | 729 | 0.0 |
| 17.04.2026 | 12:50 | 21.4 | 54 | 11.7 | 1020.2 | 4.3 | NNW | 765 | 0.0 |
| 17.04.2026 | 12:55 | 21.7 | 55 | 12.3 | 1020.2 | 10.4 | ONO | 754 | 0.0 |
| 17.04.2026 | 13:00 | 21.7 | 55 | 12.3 | 1020.2 | 4.3 | NNW | 749 | 0.0 |
| 17.04.2026 | 13:05 | 21.7 | 51 | 11.1 | 1020.2 | 4.3 | WNW | 765 | 0.0 |
| 17.04.2026 | 13:10 | 21.9 | 53 | 11.9 | 1020.1 | 12.6 | NNW | 807 | 0.0 |
| 17.04.2026 | 13:15 | 21.8 | 55 | 12.4 | 1020.0 | 0.0 | WSW | 817 | 0.0 |
| 17.04.2026 | 13:20 | 22.0 | 52 | 11.7 | 1020.0 | 8.3 | ONO | 809 | 0.0 |
| 17.04.2026 | 13:25 | 22.1 | 54 | 12.4 | 1020.0 | 6.1 | NNW | 821 | 0.0 |
| 17.04.2026 | 13:30 | 22.3 | 54 | 12.5 | 1019.9 | 6.1 | OSO | 847 | 0.0 |
| 17.04.2026 | 13:35 | 22.1 | 54 | 12.4 | 1019.9 | 6.1 | WNW | 863 | 0.0 |
| 17.04.2026 | 13:40 | 21.7 | 54 | 12.0 | 1019.9 | 6.1 | NNW | 142 | 0.0 |
| 17.04.2026 | 13:45 | 21.2 | 55 | 11.8 | 1019.8 | 6.1 | NNW | 204 | 0.0 |
| 17.04.2026 | 13:50 | 21.8 | 56 | 12.6 | 1019.8 | 16.9 | NNW | 872 | 0.0 |
| 17.04.2026 | 13:56 | 22.4 | 52 | 12.1 | 1019.7 | 6.1 | NNO | 919 | 0.0 |
| 17.04.2026 | 14:01 | 23.0 | 53 | 12.9 | 1019.7 | 8.3 | NNO | 909 | 0.0 |
| 17.04.2026 | 14:06 | 22.9 | 52 | 12.5 | 1019.6 | 6.1 | NW | 896 | 0.0 |
| 17.04.2026 | 14:11 | 22.7 | 54 | 12.9 | 1019.6 | 8.3 | W | 935 | 0.0 |
| 17.04.2026 | 14:16 | 22.4 | 50 | 11.5 | 1019.6 | 12.6 | NNW | 373 | 0.0 |
| 17.04.2026 | 14:21 | 21.5 | 55 | 12.1 | 1019.6 | 10.4 | NNW | 257 | 0.0 |
| 17.04.2026 | 14:26 | 21.3 | 55 | 11.9 | 1019.6 | 6.1 | WNW | 230 | 0.0 |
| 17.04.2026 | 14:31 | 21.1 | 53 | 11.1 | 1019.6 | 10.4 | WNW | 232 | 0.0 |
| 17.04.2026 | 14:36 | 21.3 | 55 | 11.9 | 1019.6 | 8.3 | NW | 316 | 0.0 |
| 17.04.2026 | 14:41 | 21.9 | 54 | 12.2 | 1019.5 | 6.1 | NNW | 898 | 0.0 |
| 17.04.2026 | 14:46 | 22.2 | 52 | 11.9 | 1019.6 | 8.3 | NNW | 207 | 0.0 |
| 17.04.2026 | 14:51 | 21.9 | 53 | 11.9 | 1019.5 | 12.6 | NNW | 867 | 0.0 |
| 17.04.2026 | 14:56 | 22.2 | 51 | 11.6 | 1019.5 | 8.3 | NW | 174 | 0.0 |
| 17.04.2026 | 15:01 | 21.5 | 52 | 11.2 | 1019.5 | 8.3 | NNO | 190 | 0.0 |
| 17.04.2026 | 15:06 | 21.4 | 51 | 10.8 | 1019.5 | 6.1 | NO | 193 | 0.0 |
| 17.04.2026 | 15:11 | 21.3 | 50 | 10.5 | 1019.4 | 6.1 | N | 178 | 0.0 |
| 17.04.2026 | 15:16 | 21.2 | 50 | 10.4 | 1019.4 | 4.3 | N | 156 | 0.0 |
| 17.04.2026 | 15:21 | 21.2 | 51 | 10.7 | 1019.4 | 6.1 | NW | 162 | 0.0 |
| 17.04.2026 | 15:26 | 21.2 | 52 | 11.0 | 1019.3 | 0.0 | N | 171 | 0.0 |
| 17.04.2026 | 15:31 | 21.1 | 52 | 10.9 | 1019.3 | 0.0 | N | 190 | 0.0 |
| 17.04.2026 | 15:36 | 21.1 | 52 | 10.9 | 1019.3 | 4.3 | N | 218 | 0.0 |
| 17.04.2026 | 15:41 | 21.3 | 51 | 10.8 | 1019.1 | 6.1 | N | 244 | 0.0 |
| 17.04.2026 | 15:46 | 21.5 | 51 | 10.9 | 1019.2 | 8.3 | NNW | 148 | 0.0 |
| 17.04.2026 | 15:51 | 21.5 | 53 | 11.5 | 1019.1 | 6.1 | N | 220 | 0.0 |
| 17.04.2026 | 15:56 | 21.5 | 48 | 10.0 | 1019.0 | 0.0 | W | 193 | 0.0 |
| 17.04.2026 | 16:01 | 21.4 | 51 | 10.8 | 1019.0 | 0.0 | N | 135 | 0.0 |
| 17.04.2026 | 16:06 | 21.2 | 53 | 11.2 | 1018.8 | 4.3 | NNW | 137 | 0.0 |
| 17.04.2026 | 16:11 | 21.0 | 53 | 11.1 | 1018.8 | 1.8 | WNW | 132 | 0.0 |
| 17.04.2026 | 16:16 | 20.9 | 52 | 10.7 | 1018.8 | 6.1 | N | 127 | 0.0 |
| 17.04.2026 | 16:21 | 21.0 | 49 | 9.9 | 1018.7 | 0.0 | NNW | 125 | 0.0 |
| 17.04.2026 | 16:26 | 21.0 | 52 | 10.8 | 1018.7 | 0.0 | NNW | 167 | 0.0 |
| 17.04.2026 | 16:31 | 21.2 | 50 | 10.4 | 1018.6 | 0.0 | NNW | 167 | 0.0 |
| 17.04.2026 | 16:36 | 21.3 | 52 | 11.0 | 1018.6 | 4.3 | NO | 192 | 0.0 |
| 17.04.2026 | 16:41 | 21.4 | 49 | 10.2 | 1018.6 | 1.8 | ONO | 200 | 0.0 |
| 17.04.2026 | 16:46 | 21.6 | 49 | 10.4 | 1018.5 | 4.3 | W | 214 | 0.0 |
| 17.04.2026 | 16:51 | 21.5 | 53 | 11.5 | 1018.5 | 1.8 | WNW | 204 | 0.0 |
| 17.04.2026 | 16:56 | 21.3 | 53 | 11.3 | 1018.5 | 6.1 | WNW | 218 | 0.0 |
| 17.04.2026 | 17:01 | 21.6 | 54 | 11.9 | 1018.4 | 6.1 | WNW | 366 | 0.0 |
| 17.04.2026 | 17:07 | 22.0 | 52 | 11.7 | 1018.4 | 4.3 | WNW | 287 | 0.0 |
| 17.04.2026 | 17:12 | 22.3 | 50 | 11.4 | 1018.4 | 4.3 | NNW | 193 | 0.0 |
| 17.04.2026 | 17:17 | 22.0 | 49 | 10.8 | 1018.4 | 0.0 | WNW | 149 | 0.0 |
| 17.04.2026 | 17:22 | 21.7 | 50 | 10.8 | 1018.4 | 4.3 | W | 148 | 0.0 |
| 17.04.2026 | 17:27 | 21.8 | 49 | 10.6 | 1018.3 | 1.8 | WNW | 334 | 0.0 |
| 17.04.2026 | 17:32 | 22.2 | 48 | 10.7 | 1018.3 | 1.8 | S | 415 | 0.0 |
| 17.04.2026 | 17:37 | 22.4 | 49 | 11.2 | 1018.3 | 4.3 | S | 350 | 0.0 |
| 17.04.2026 | 17:42 | 22.6 | 48 | 11.0 | 1018.3 | 0.0 | SW | 269 | 0.0 |
| 17.04.2026 | 17:47 | 22.5 | 46 | 10.3 | 1018.2 | 0.0 | SW | 330 | 0.0 |
| 17.04.2026 | 17:52 | 22.5 | 46 | 10.3 | 1018.3 | 1.8 | SW | 332 | 0.0 |
| 17.04.2026 | 17:57 | 22.4 | 47 | 10.5 | 1018.3 | 1.8 | ONO | 380 | 0.0 |
| 17.04.2026 | 18:02 | 22.7 | 45 | 10.2 | 1018.3 | 6.1 | WNW | 355 | 0.0 |
| 17.04.2026 | 18:07 | 22.4 | 44 | 9.5 | 1018.3 | 4.3 | NNO | 264 | 0.0 |
| 17.04.2026 | 18:12 | 22.3 | 44 | 9.5 | 1018.3 | 6.1 | NNW | 334 | 0.0 |
| 17.04.2026 | 18:17 | 22.4 | 46 | 10.2 | 1018.3 | 6.1 | ONO | 276 | 0.0 |
| 17.04.2026 | 18:22 | 22.4 | 45 | 9.9 | 1018.3 | 4.3 | ONO | 262 | 0.0 |
| 17.04.2026 | 18:27 | 22.4 | 45 | 9.9 | 1018.2 | 6.1 | ONO | 195 | 0.0 |
| 17.04.2026 | 18:32 | 22.1 | 46 | 9.9 | 1018.2 | 6.1 | NNW | 190 | 0.0 |
| 17.04.2026 | 18:37 | 21.9 | 47 | 10.1 | 1018.2 | 1.8 | NNW | 169 | 0.0 |
| 17.04.2026 | 18:42 | 21.8 | 47 | 10.0 | 1018.2 | 1.8 | NO | 141 | 0.0 |
| 17.04.2026 | 18:47 | 21.7 | 47 | 9.9 | 1018.2 | 6.1 | NNO | 130 | 0.0 |
| 17.04.2026 | 18:52 | 21.7 | 47 | 9.9 | 1018.3 | 4.3 | NO | 102 | 0.0 |
| 17.04.2026 | 18:57 | 21.6 | 47 | 9.8 | 1018.3 | 4.3 | NNW | 104 | 0.0 |
| 17.04.2026 | 19:02 | 21.4 | 48 | 9.9 | 1018.2 | 4.3 | NW | 93 | 0.0 |
| 17.04.2026 | 19:07 | 21.3 | 48 | 9.8 | 1018.3 | 4.3 | ONO | 98 | 0.0 |
| 17.04.2026 | 19:12 | 21.2 | 49 | 10.1 | 1018.2 | 0.0 | ONO | 91 | 0.0 |
| 17.04.2026 | 19:17 | 21.2 | 49 | 10.1 | 1018.3 | 0.0 | ONO | 81 | 0.0 |
| 17.04.2026 | 19:22 | 21.1 | 49 | 10.0 | 1018.3 | 0.0 | ONO | 72 | 0.0 |
| 17.04.2026 | 19:27 | 20.7 | 51 | 10.2 | 1018.3 | 0.0 | WNW | 65 | 0.0 |
| 17.04.2026 | 19:32 | 20.4 | 52 | 10.2 | 1018.3 | 0.0 | NW | 76 | 0.0 |
| 17.04.2026 | 19:37 | 20.2 | 55 | 10.9 | 1018.3 | 0.0 | SW | 58 | 0.0 |
| 17.04.2026 | 19:42 | 19.9 | 56 | 10.9 | 1018.4 | 0.0 | WSW | 46 | 0.0 |
| 17.04.2026 | 19:47 | 19.5 | 59 | 11.3 | 1018.4 | 0.0 | WSW | 39 | 0.0 |
| 17.04.2026 | 19:52 | 19.2 | 61 | 11.5 | 1018.3 | 0.0 | WSW | 30 | 0.0 |
| 17.04.2026 | 19:57 | 18.8 | 61 | 11.1 | 1018.4 | 0.0 | WSW | 21 | 0.0 |
| 17.04.2026 | 20:03 | 18.5 | 62 | 11.1 | 1018.4 | 1.8 | WSW | 16 | 0.0 |
| 17.04.2026 | 20:08 | 18.1 | 63 | 10.9 | 1018.4 | 0.0 | WNW | 12 | 0.0 |
| 17.04.2026 | 20:13 | 17.8 | 63 | 10.7 | 1018.4 | 1.8 | NNW | 11 | 0.0 |
| 17.04.2026 | 20:18 | 17.6 | 62 | 10.2 | 1018.4 | 0.0 | NNW | 9 | 0.0 |
| 17.04.2026 | 20:23 | 17.8 | 61 | 10.2 | 1018.4 | 0.0 | NNW | 5 | 0.0 |
| 17.04.2026 | 20:28 | 17.6 | 64 | 10.7 | 1018.5 | 0.0 | NNW | 5 | 0.0 |
| 17.04.2026 | 20:33 | 17.3 | 64 | 10.4 | 1018.5 | 0.0 | NNW | 5 | 0.0 |
| 17.04.2026 | 20:38 | 17.3 | 67 | 11.1 | 1018.6 | 0.0 | NNW | 0 | 0.0 |
| 17.04.2026 | 20:43 | 17.1 | 67 | 10.9 | 1018.6 | 0.0 | NNW | 0 | 0.0 |
| 17.04.2026 | 20:48 | 16.8 | 68 | 10.9 | 1018.7 | 0.0 | NNW | 0 | 0.0 |
| 17.04.2026 | 20:53 | 16.5 | 69 | 10.8 | 1018.7 | 0.0 | NNW | 0 | 0.0 |
| 17.04.2026 | 20:58 | 16.3 | 70 | 10.8 | 1018.8 | 0.0 | NNW | 0 | 0.0 |
| 17.04.2026 | 21:03 | 16.2 | 69 | 10.5 | 1018.8 | 0.0 | NNW | 0 | 0.0 |
| 17.04.2026 | 21:08 | 16.3 | 68 | 10.4 | 1018.8 | 0.0 | NNW | 0 | 0.0 |
| 17.04.2026 | 21:13 | 16.4 | 67 | 10.3 | 1018.9 | 0.0 | NNW | 0 | 0.0 |
| 17.04.2026 | 21:18 | 16.3 | 68 | 10.4 | 1018.9 | 0.0 | NNW | 0 | 0.0 |
| 17.04.2026 | 21:23 | 16.0 | 69 | 10.3 | 1018.9 | 0.0 | NNW | 0 | 0.0 |
| 17.04.2026 | 21:28 | 15.8 | 71 | 10.6 | 1019.0 | 0.0 | NNW | 0 | 0.0 |
| 17.04.2026 | 21:33 | 15.7 | 72 | 10.7 | 1019.0 | 0.0 | NNW | 0 | 0.0 |
| 17.04.2026 | 21:38 | 15.4 | 72 | 10.4 | 1019.0 | 0.0 | NNW | 0 | 0.0 |
| 17.04.2026 | 21:43 | 15.3 | 71 | 10.1 | 1019.1 | 0.0 | NNW | 0 | 0.0 |
| 17.04.2026 | 21:48 | 15.2 | 73 | 10.4 | 1019.1 | 0.0 | NNW | 0 | 0.0 |
| 17.04.2026 | 21:53 | 15.0 | 73 | 10.2 | 1019.1 | 0.0 | NNW | 0 | 0.0 |
| 17.04.2026 | 21:58 | 14.9 | 74 | 10.3 | 1019.2 | 0.0 | NNW | 0 | 0.0 |
| 17.04.2026 | 22:03 | 14.8 | 75 | 10.4 | 1019.2 | 0.0 | NNW | 0 | 0.0 |
| 17.04.2026 | 22:08 | 14.7 | 75 | 10.3 | 1019.2 | 0.0 | NNW | 0 | 0.0 |
| 17.04.2026 | 22:13 | 14.4 | 75 | 10.0 | 1019.2 | 0.0 | NNW | 0 | 0.0 |
| 17.04.2026 | 22:18 | 14.4 | 76 | 10.2 | 1019.1 | 0.0 | NNW | 0 | 0.0 |
| 17.04.2026 | 22:23 | 14.3 | 75 | 9.9 | 1019.1 | 0.0 | NNW | 0 | 0.0 |
| 17.04.2026 | 22:28 | 14.2 | 75 | 9.8 | 1019.1 | 0.0 | NNW | 0 | 0.0 |
| 17.04.2026 | 22:33 | 14.1 | 77 | 10.1 | 1019.2 | 0.0 | NNW | 0 | 0.0 |
| 17.04.2026 | 22:39 | 14.0 | 77 | 10.0 | 1019.2 | 0.0 | NNW | 0 | 0.0 |
| 17.04.2026 | 22:44 | 13.8 | 78 | 10.0 | 1019.2 | 0.0 | NNW | 0 | 0.0 |
| 17.04.2026 | 22:49 | 13.7 | 78 | 9.9 | 1019.2 | 0.0 | NNW | 0 | 0.0 |
| 17.04.2026 | 22:54 | 13.6 | 78 | 9.8 | 1019.2 | 0.0 | NNW | 0 | 0.0 |
| 17.04.2026 | 22:59 | 13.4 | 79 | 9.8 | 1019.2 | 0.0 | NNW | 0 | 0.0 |
| 17.04.2026 | 23:04 | 13.2 | 79 | 9.6 | 1019.2 | 0.0 | NNW | 0 | 0.0 |
| 17.04.2026 | 23:09 | 13.1 | 80 | 9.7 | 1019.2 | 0.0 | NNW | 0 | 0.0 |
| 17.04.2026 | 23:14 | 12.9 | 80 | 9.5 | 1019.1 | 0.0 | NNW | 0 | 0.0 |
| 17.04.2026 | 23:19 | 12.8 | 80 | 9.4 | 1019.2 | 0.0 | NNW | 0 | 0.0 |
| 17.04.2026 | 23:24 | 12.7 | 81 | 9.5 | 1019.1 | 0.0 | NNW | 0 | 0.0 |
| 17.04.2026 | 23:29 | 12.6 | 81 | 9.4 | 1019.2 | 0.0 | NNW | 0 | 0.0 |
| 17.04.2026 | 23:34 | 12.5 | 82 | 9.5 | 1019.2 | 0.0 | NNW | 0 | 0.0 |
| 17.04.2026 | 23:39 | 12.3 | 81 | 9.1 | 1019.2 | 0.0 | NNW | 0 | 0.0 |
| 17.04.2026 | 23:44 | 12.1 | 82 | 9.1 | 1019.2 | 0.0 | NNW | 0 | 0.0 |
| 17.04.2026 | 23:49 | 11.9 | 82 | 8.9 | 1019.2 | 0.0 | NNW | 0 | 0.0 |
| 17.04.2026 | 23:54 | 11.8 | 83 | 9.0 | 1019.2 | 0.0 | NNW | 0 | 0.0 |
| 17.04.2026 | 23:59 | 11.7 | 83 | 8.9 | 1019.2 | 0.0 | NNW | 0 | 0.0 |